sensor_id;sensor_type;location;lat;lon;timestamp;P1;durP1;ratioP1;P2;durP2;ratioP2
16346;SDS011;8283;48.504;13.734;2022-12-10T00:01:55;10.82;;;7.80;;
16346;SDS011;8283;48.504;13.734;2022-12-10T00:04:39;11.73;;;7.78;;
16346;SDS011;8283;48.504;13.734;2022-12-10T00:07:24;11.88;;;8.05;;
16346;SDS011;8283;48.504;13.734;2022-12-10T00:10:08;12.10;;;7.57;;
16346;SDS011;8283;48.504;13.734;2022-12-10T00:12:52;10.40;;;6.72;;
16346;SDS011;8283;48.504;13.734;2022-12-10T00:15:36;10.77;;;7.22;;
16346;SDS011;8283;48.504;13.734;2022-12-10T00:18:21;10.80;;;7.13;;
16346;SDS011;8283;48.504;13.734;2022-12-10T00:21:05;9.25;;;6.50;;
16346;SDS011;8283;48.504;13.734;2022-12-10T00:23:51;9.82;;;6.40;;
16346;SDS011;8283;48.504;13.734;2022-12-10T00:26:37;12.05;;;7.75;;
16346;SDS011;8283;48.504;13.734;2022-12-10T00:29:22;11.07;;;8.02;;
16346;SDS011;8283;48.504;13.734;2022-12-10T00:32:06;10.38;;;7.00;;
16346;SDS011;8283;48.504;13.734;2022-12-10T00:34:51;11.88;;;7.78;;
16346;SDS011;8283;48.504;13.734;2022-12-10T00:37:35;9.57;;;6.97;;
16346;SDS011;8283;48.504;13.734;2022-12-10T00:40:19;10.25;;;7.60;;
16346;SDS011;8283;48.504;13.734;2022-12-10T00:43:04;10.57;;;7.63;;
16346;SDS011;8283;48.504;13.734;2022-12-10T00:45:49;10.38;;;6.63;;
16346;SDS011;8283;48.504;13.734;2022-12-10T00:48:33;12.73;;;8.18;;
16346;SDS011;8283;48.504;13.734;2022-12-10T00:51:21;11.38;;;7.50;;
16346;SDS011;8283;48.504;13.734;2022-12-10T00:54:08;10.55;;;7.90;;
16346;SDS011;8283;48.504;13.734;2022-12-10T00:56:53;12.30;;;8.13;;
16346;SDS011;8283;48.504;13.734;2022-12-10T00:59:38;12.57;;;8.82;;
16346;SDS011;8283;48.504;13.734;2022-12-10T01:02:22;11.75;;;7.80;;
16346;SDS011;8283;48.504;13.734;2022-12-10T01:05:07;12.70;;;9.10;;
16346;SDS011;8283;48.504;13.734;2022-12-10T01:07:51;13.02;;;8.60;;
16346;SDS011;8283;48.504;13.734;2022-12-10T01:10:37;10.88;;;7.82;;
16346;SDS011;8283;48.504;13.734;2022-12-10T01:13:22;11.52;;;8.32;;
16346;SDS011;8283;48.504;13.734;2022-12-10T01:16:07;12.68;;;8.98;;
16346;SDS011;8283;48.504;13.734;2022-12-10T01:18:56;13.48;;;8.18;;
16346;SDS011;8283;48.504;13.734;2022-12-10T01:21:41;12.07;;;7.95;;
16346;SDS011;8283;48.504;13.734;2022-12-10T01:24:26;10.15;;;7.22;;
16346;SDS011;8283;48.504;13.734;2022-12-10T01:27:11;12.75;;;7.70;;
16346;SDS011;8283;48.504;13.734;2022-12-10T01:29:55;12.13;;;7.40;;
16346;SDS011;8283;48.504;13.734;2022-12-10T01:32:39;8.80;;;6.70;;
16346;SDS011;8283;48.504;13.734;2022-12-10T01:35:24;10.20;;;7.00;;
16346;SDS011;8283;48.504;13.734;2022-12-10T01:38:08;10.50;;;7.00;;
16346;SDS011;8283;48.504;13.734;2022-12-10T01:40:53;9.65;;;7.00;;
16346;SDS011;8283;48.504;13.734;2022-12-10T01:43:51;12.55;;;8.95;;
16346;SDS011;8283;48.504;13.734;2022-12-10T01:46:47;11.50;;;8.13;;
16346;SDS011;8283;48.504;13.734;2022-12-10T01:49:37;12.02;;;7.97;;
16346;SDS011;8283;48.504;13.734;2022-12-10T01:52:23;11.07;;;7.22;;
16346;SDS011;8283;48.504;13.734;2022-12-10T01:55:33;11.45;;;7.50;;
16346;SDS011;8283;48.504;13.734;2022-12-10T01:58:23;10.65;;;7.28;;
16346;SDS011;8283;48.504;13.734;2022-12-10T02:01:18;10.75;;;6.57;;
16346;SDS011;8283;48.504;13.734;2022-12-10T02:07:39;10.98;;;7.40;;
16346;SDS011;8283;48.504;13.734;2022-12-10T02:10:58;12.98;;;8.40;;
16346;SDS011;8283;48.504;13.734;2022-12-10T02:16:52;11.10;;;8.32;;
16346;SDS011;8283;48.504;13.734;2022-12-10T02:22:26;16.52;;;9.18;;
16346;SDS011;8283;48.504;13.734;2022-12-10T02:25:16;12.13;;;8.63;;
16346;SDS011;8283;48.504;13.734;2022-12-10T02:31:11;11.95;;;7.85;;
16346;SDS011;8283;48.504;13.734;2022-12-10T02:34:02;12.13;;;7.07;;
16346;SDS011;8283;48.504;13.734;2022-12-10T02:36:50;10.75;;;7.63;;
16346;SDS011;8283;48.504;13.734;2022-12-10T02:39:38;12.02;;;7.35;;
16346;SDS011;8283;48.504;13.734;2022-12-10T02:42:26;13.50;;;8.93;;
16346;SDS011;8283;48.504;13.734;2022-12-10T02:45:15;14.20;;;9.32;;
16346;SDS011;8283;48.504;13.734;2022-12-10T02:48:01;11.75;;;8.32;;
16346;SDS011;8283;48.504;13.734;2022-12-10T02:50:53;9.90;;;6.95;;
16346;SDS011;8283;48.504;13.734;2022-12-10T02:53:46;11.45;;;8.15;;
16346;SDS011;8283;48.504;13.734;2022-12-10T02:59:27;9.18;;;6.93;;
16346;SDS011;8283;48.504;13.734;2022-12-10T03:02:19;12.40;;;6.82;;
16346;SDS011;8283;48.504;13.734;2022-12-10T03:05:27;10.95;;;8.20;;
16346;SDS011;8283;48.504;13.734;2022-12-10T03:08:21;9.85;;;7.13;;
16346;SDS011;8283;48.504;13.734;2022-12-10T03:11:25;10.48;;;7.22;;
16346;SDS011;8283;48.504;13.734;2022-12-10T03:14:12;14.52;;;8.88;;
16346;SDS011;8283;48.504;13.734;2022-12-10T03:17:02;12.00;;;7.43;;
16346;SDS011;8283;48.504;13.734;2022-12-10T03:19:49;11.93;;;8.32;;
16346;SDS011;8283;48.504;13.734;2022-12-10T03:22:36;9.35;;;7.15;;
16346;SDS011;8283;48.504;13.734;2022-12-10T03:25:24;15.27;;;8.93;;
16346;SDS011;8283;48.504;13.734;2022-12-10T03:28:10;12.75;;;7.82;;
16346;SDS011;8283;48.504;13.734;2022-12-10T03:30:55;13.07;;;9.02;;
16346;SDS011;8283;48.504;13.734;2022-12-10T03:33:41;13.02;;;9.00;;
16346;SDS011;8283;48.504;13.734;2022-12-10T03:36:27;9.65;;;7.07;;
16346;SDS011;8283;48.504;13.734;2022-12-10T03:39:13;13.02;;;8.48;;
16346;SDS011;8283;48.504;13.734;2022-12-10T03:41:59;13.18;;;8.88;;
16346;SDS011;8283;48.504;13.734;2022-12-10T03:44:43;13.45;;;9.15;;
16346;SDS011;8283;48.504;13.734;2022-12-10T03:47:27;11.13;;;8.13;;
16346;SDS011;8283;48.504;13.734;2022-12-10T03:50:12;11.98;;;8.05;;
16346;SDS011;8283;48.504;13.734;2022-12-10T03:52:58;11.15;;;8.60;;
16346;SDS011;8283;48.504;13.734;2022-12-10T03:55:42;12.73;;;8.45;;
16346;SDS011;8283;48.504;13.734;2022-12-10T03:58:26;12.02;;;8.55;;
16346;SDS011;8283;48.504;13.734;2022-12-10T04:01:10;12.05;;;8.27;;
16346;SDS011;8283;48.504;13.734;2022-12-10T04:03:54;11.00;;;8.38;;
16346;SDS011;8283;48.504;13.734;2022-12-10T04:06:39;9.75;;;6.30;;
16346;SDS011;8283;48.504;13.734;2022-12-10T04:09:24;11.27;;;7.10;;
16346;SDS011;8283;48.504;13.734;2022-12-10T04:12:09;9.02;;;6.65;;
16346;SDS011;8283;48.504;13.734;2022-12-10T04:14:53;8.90;;;6.95;;
16346;SDS011;8283;48.504;13.734;2022-12-10T04:17:56;10.50;;;6.88;;
16346;SDS011;8283;48.504;13.734;2022-12-10T04:20:40;9.05;;;6.85;;
16346;SDS011;8283;48.504;13.734;2022-12-10T04:23:44;10.07;;;6.45;;
16346;SDS011;8283;48.504;13.734;2022-12-10T04:26:47;12.07;;;7.40;;
16346;SDS011;8283;48.504;13.734;2022-12-10T04:29:37;12.65;;;6.78;;
16346;SDS011;8283;48.504;13.734;2022-12-10T04:32:22;8.73;;;6.00;;
16346;SDS011;8283;48.504;13.734;2022-12-10T04:35:08;10.35;;;7.57;;
16346;SDS011;8283;48.504;13.734;2022-12-10T04:37:53;12.13;;;7.32;;
16346;SDS011;8283;48.504;13.734;2022-12-10T04:40:37;9.05;;;7.15;;
16346;SDS011;8283;48.504;13.734;2022-12-10T04:43:21;11.63;;;7.82;;
16346;SDS011;8283;48.504;13.734;2022-12-10T04:46:05;12.77;;;8.15;;
16346;SDS011;8283;48.504;13.734;2022-12-10T04:48:50;11.98;;;8.20;;
16346;SDS011;8283;48.504;13.734;2022-12-10T04:51:34;18.85;;;8.95;;
16346;SDS011;8283;48.504;13.734;2022-12-10T04:54:18;12.20;;;7.35;;
16346;SDS011;8283;48.504;13.734;2022-12-10T04:57:03;15.13;;;9.48;;
16346;SDS011;8283;48.504;13.734;2022-12-10T04:59:48;15.30;;;10.23;;
16346;SDS011;8283;48.504;13.734;2022-12-10T05:02:32;12.05;;;8.98;;
16346;SDS011;8283;48.504;13.734;2022-12-10T05:05:16;14.45;;;9.07;;
16346;SDS011;8283;48.504;13.734;2022-12-10T05:08:01;15.55;;;9.63;;
16346;SDS011;8283;48.504;13.734;2022-12-10T05:10:45;15.57;;;8.82;;
16346;SDS011;8283;48.504;13.734;2022-12-10T05:13:30;14.07;;;9.38;;
16346;SDS011;8283;48.504;13.734;2022-12-10T05:16:15;14.07;;;9.32;;
16346;SDS011;8283;48.504;13.734;2022-12-10T05:19:01;13.52;;;8.13;;
16346;SDS011;8283;48.504;13.734;2022-12-10T05:21:46;14.85;;;9.68;;
16346;SDS011;8283;48.504;13.734;2022-12-10T05:24:49;15.68;;;10.63;;
16346;SDS011;8283;48.504;13.734;2022-12-10T05:27:33;12.68;;;8.95;;
16346;SDS011;8283;48.504;13.734;2022-12-10T05:30:18;15.85;;;10.68;;
16346;SDS011;8283;48.504;13.734;2022-12-10T05:33:03;14.32;;;9.13;;
16346;SDS011;8283;48.504;13.734;2022-12-10T05:35:54;13.00;;;9.15;;
16346;SDS011;8283;48.504;13.734;2022-12-10T05:38:40;11.90;;;7.50;;
16346;SDS011;8283;48.504;13.734;2022-12-10T05:41:28;11.45;;;8.57;;
16346;SDS011;8283;48.504;13.734;2022-12-10T05:44:15;12.90;;;8.65;;
16346;SDS011;8283;48.504;13.734;2022-12-10T05:46:59;15.45;;;8.68;;
16346;SDS011;8283;48.504;13.734;2022-12-10T05:49:44;16.40;;;9.40;;
16346;SDS011;8283;48.504;13.734;2022-12-10T05:52:28;13.32;;;9.18;;
16346;SDS011;8283;48.504;13.734;2022-12-10T05:55:13;13.55;;;8.98;;
16346;SDS011;8283;48.504;13.734;2022-12-10T05:57:57;13.25;;;9.18;;
16346;SDS011;8283;48.504;13.734;2022-12-10T06:00:41;16.38;;;9.75;;
16346;SDS011;8283;48.504;13.734;2022-12-10T06:03:26;13.38;;;8.75;;
16346;SDS011;8283;48.504;13.734;2022-12-10T06:06:11;15.75;;;9.43;;
16346;SDS011;8283;48.504;13.734;2022-12-10T06:08:57;13.90;;;9.95;;
16346;SDS011;8283;48.504;13.734;2022-12-10T06:11:42;19.35;;;11.00;;
16346;SDS011;8283;48.504;13.734;2022-12-10T06:14:26;13.55;;;9.15;;
16346;SDS011;8283;48.504;13.734;2022-12-10T06:17:10;15.20;;;9.75;;
16346;SDS011;8283;48.504;13.734;2022-12-10T06:19:54;11.82;;;8.20;;
16346;SDS011;8283;48.504;13.734;2022-12-10T06:22:39;11.73;;;8.02;;
16346;SDS011;8283;48.504;13.734;2022-12-10T06:25:23;14.18;;;8.65;;
16346;SDS011;8283;48.504;13.734;2022-12-10T06:28:08;14.05;;;8.73;;
16346;SDS011;8283;48.504;13.734;2022-12-10T06:30:53;13.18;;;9.38;;
16346;SDS011;8283;48.504;13.734;2022-12-10T06:33:38;15.57;;;8.93;;
16346;SDS011;8283;48.504;13.734;2022-12-10T06:36:22;13.88;;;9.30;;
16346;SDS011;8283;48.504;13.734;2022-12-10T06:39:07;15.27;;;10.32;;
16346;SDS011;8283;48.504;13.734;2022-12-10T06:41:52;15.20;;;10.07;;
16346;SDS011;8283;48.504;13.734;2022-12-10T06:44:37;14.05;;;10.13;;
16346;SDS011;8283;48.504;13.734;2022-12-10T06:47:21;11.88;;;8.65;;
16346;SDS011;8283;48.504;13.734;2022-12-10T06:50:06;13.55;;;8.13;;
16346;SDS011;8283;48.504;13.734;2022-12-10T06:52:51;12.38;;;8.43;;
16346;SDS011;8283;48.504;13.734;2022-12-10T06:55:38;15.38;;;10.60;;
16346;SDS011;8283;48.504;13.734;2022-12-10T06:58:22;14.65;;;9.45;;
16346;SDS011;8283;48.504;13.734;2022-12-10T07:01:08;13.50;;;9.30;;
16346;SDS011;8283;48.504;13.734;2022-12-10T07:03:55;12.43;;;8.85;;
16346;SDS011;8283;48.504;13.734;2022-12-10T07:06:41;14.30;;;8.27;;
16346;SDS011;8283;48.504;13.734;2022-12-10T07:09:25;13.93;;;8.40;;
16346;SDS011;8283;48.504;13.734;2022-12-10T07:12:09;14.43;;;9.50;;
16346;SDS011;8283;48.504;13.734;2022-12-10T07:14:54;12.35;;;8.63;;
16346;SDS011;8283;48.504;13.734;2022-12-10T07:17:39;14.32;;;9.40;;
16346;SDS011;8283;48.504;13.734;2022-12-10T07:20:23;14.10;;;9.30;;
16346;SDS011;8283;48.504;13.734;2022-12-10T07:23:07;14.77;;;9.55;;
16346;SDS011;8283;48.504;13.734;2022-12-10T07:25:54;15.85;;;10.98;;
16346;SDS011;8283;48.504;13.734;2022-12-10T07:28:38;16.10;;;11.30;;
16346;SDS011;8283;48.504;13.734;2022-12-10T07:31:23;15.48;;;9.93;;
16346;SDS011;8283;48.504;13.734;2022-12-10T07:34:07;15.10;;;10.00;;
16346;SDS011;8283;48.504;13.734;2022-12-10T07:36:53;14.15;;;8.82;;
16346;SDS011;8283;48.504;13.734;2022-12-10T07:39:38;16.42;;;9.85;;
16346;SDS011;8283;48.504;13.734;2022-12-10T07:42:22;19.58;;;12.02;;
16346;SDS011;8283;48.504;13.734;2022-12-10T07:45:07;18.00;;;12.02;;
16346;SDS011;8283;48.504;13.734;2022-12-10T07:47:52;18.50;;;11.85;;
16346;SDS011;8283;48.504;13.734;2022-12-10T07:50:36;16.17;;;10.55;;
16346;SDS011;8283;48.504;13.734;2022-12-10T07:53:21;15.80;;;10.18;;
16346;SDS011;8283;48.504;13.734;2022-12-10T07:56:05;16.63;;;9.95;;
16346;SDS011;8283;48.504;13.734;2022-12-10T07:58:51;14.05;;;9.48;;
16346;SDS011;8283;48.504;13.734;2022-12-10T08:01:36;12.68;;;8.32;;
16346;SDS011;8283;48.504;13.734;2022-12-10T08:04:20;14.55;;;10.02;;
16346;SDS011;8283;48.504;13.734;2022-12-10T08:07:05;14.30;;;9.80;;
16346;SDS011;8283;48.504;13.734;2022-12-10T08:09:51;13.32;;;10.15;;
16346;SDS011;8283;48.504;13.734;2022-12-10T08:12:35;16.40;;;9.88;;
16346;SDS011;8283;48.504;13.734;2022-12-10T08:15:19;14.90;;;9.77;;
16346;SDS011;8283;48.504;13.734;2022-12-10T08:18:04;19.70;;;10.98;;
16346;SDS011;8283;48.504;13.734;2022-12-10T08:20:48;13.20;;;9.63;;
16346;SDS011;8283;48.504;13.734;2022-12-10T08:23:33;18.23;;;10.88;;
16346;SDS011;8283;48.504;13.734;2022-12-10T08:26:19;14.82;;;9.73;;
16346;SDS011;8283;48.504;13.734;2022-12-10T08:29:04;14.25;;;9.35;;
16346;SDS011;8283;48.504;13.734;2022-12-10T08:31:48;15.85;;;10.50;;
16346;SDS011;8283;48.504;13.734;2022-12-10T08:34:33;15.73;;;10.55;;
16346;SDS011;8283;48.504;13.734;2022-12-10T08:37:17;15.57;;;9.63;;
16346;SDS011;8283;48.504;13.734;2022-12-10T08:40:01;13.02;;;9.48;;
16346;SDS011;8283;48.504;13.734;2022-12-10T08:42:46;12.15;;;9.02;;
16346;SDS011;8283;48.504;13.734;2022-12-10T08:45:30;14.02;;;9.73;;
16346;SDS011;8283;48.504;13.734;2022-12-10T08:48:14;13.88;;;9.68;;
16346;SDS011;8283;48.504;13.734;2022-12-10T08:50:59;14.63;;;9.82;;
16346;SDS011;8283;48.504;13.734;2022-12-10T08:53:43;14.45;;;9.50;;
16346;SDS011;8283;48.504;13.734;2022-12-10T08:56:28;11.73;;;7.38;;
16346;SDS011;8283;48.504;13.734;2022-12-10T08:59:13;13.48;;;8.68;;
16346;SDS011;8283;48.504;13.734;2022-12-10T09:01:57;14.27;;;8.35;;
16346;SDS011;8283;48.504;13.734;2022-12-10T09:04:41;13.88;;;8.98;;
16346;SDS011;8283;48.504;13.734;2022-12-10T09:07:26;14.95;;;10.50;;
16346;SDS011;8283;48.504;13.734;2022-12-10T09:10:10;13.13;;;9.55;;
16346;SDS011;8283;48.504;13.734;2022-12-10T09:12:55;15.40;;;10.07;;
16346;SDS011;8283;48.504;13.734;2022-12-10T09:15:40;14.07;;;9.45;;
16346;SDS011;8283;48.504;13.734;2022-12-10T09:18:24;12.52;;;8.93;;
16346;SDS011;8283;48.504;13.734;2022-12-10T09:21:10;13.00;;;9.38;;
16346;SDS011;8283;48.504;13.734;2022-12-10T09:23:56;18.63;;;12.32;;
16346;SDS011;8283;48.504;13.734;2022-12-10T09:26:42;13.00;;;8.57;;
16346;SDS011;8283;48.504;13.734;2022-12-10T09:29:26;14.38;;;9.57;;
16346;SDS011;8283;48.504;13.734;2022-12-10T09:32:10;13.75;;;9.77;;
16346;SDS011;8283;48.504;13.734;2022-12-10T09:34:54;11.50;;;9.02;;
16346;SDS011;8283;48.504;13.734;2022-12-10T09:37:38;12.65;;;8.68;;
16346;SDS011;8283;48.504;13.734;2022-12-10T09:40:34;15.00;;;10.43;;
16346;SDS011;8283;48.504;13.734;2022-12-10T09:46:36;12.52;;;8.23;;
16346;SDS011;8283;48.504;13.734;2022-12-10T09:52:43;12.15;;;8.55;;
16346;SDS011;8283;48.504;13.734;2022-12-10T09:55:33;12.32;;;8.65;;
16346;SDS011;8283;48.504;13.734;2022-12-10T09:58:22;12.18;;;8.50;;
16346;SDS011;8283;48.504;13.734;2022-12-10T10:01:09;12.50;;;8.20;;
16346;SDS011;8283;48.504;13.734;2022-12-10T10:03:57;13.50;;;8.68;;
16346;SDS011;8283;48.504;13.734;2022-12-10T10:06:42;12.38;;;8.85;;
16346;SDS011;8283;48.504;13.734;2022-12-10T10:09:27;12.68;;;8.90;;
16346;SDS011;8283;48.504;13.734;2022-12-10T10:12:15;11.13;;;8.70;;
16346;SDS011;8283;48.504;13.734;2022-12-10T10:15:14;12.95;;;8.50;;
16346;SDS011;8283;48.504;13.734;2022-12-10T10:18:06;13.27;;;7.95;;
16346;SDS011;8283;48.504;13.734;2022-12-10T10:20:57;11.35;;;7.50;;
16346;SDS011;8283;48.504;13.734;2022-12-10T10:23:43;9.43;;;7.25;;
16346;SDS011;8283;48.504;13.734;2022-12-10T10:26:29;12.40;;;8.55;;
16346;SDS011;8283;48.504;13.734;2022-12-10T10:29:16;10.65;;;8.27;;
16346;SDS011;8283;48.504;13.734;2022-12-10T10:32:19;12.10;;;7.82;;
16346;SDS011;8283;48.504;13.734;2022-12-10T10:35:09;12.80;;;9.45;;
16346;SDS011;8283;48.504;13.734;2022-12-10T10:38:12;10.55;;;7.70;;
16346;SDS011;8283;48.504;13.734;2022-12-10T10:41:11;12.23;;;7.43;;
16346;SDS011;8283;48.504;13.734;2022-12-10T10:44:00;10.13;;;7.53;;
16346;SDS011;8283;48.504;13.734;2022-12-10T10:46:48;10.57;;;7.85;;
16346;SDS011;8283;48.504;13.734;2022-12-10T10:49:33;10.90;;;7.95;;
16346;SDS011;8283;48.504;13.734;2022-12-10T10:52:18;11.00;;;7.90;;
16346;SDS011;8283;48.504;13.734;2022-12-10T10:55:03;10.95;;;8.55;;
16346;SDS011;8283;48.504;13.734;2022-12-10T10:57:48;10.10;;;7.68;;
16346;SDS011;8283;48.504;13.734;2022-12-10T11:00:36;11.48;;;7.65;;
16346;SDS011;8283;48.504;13.734;2022-12-10T11:03:20;10.15;;;7.20;;
16346;SDS011;8283;48.504;13.734;2022-12-10T11:06:06;10.10;;;6.72;;
16346;SDS011;8283;48.504;13.734;2022-12-10T11:08:54;11.15;;;7.53;;
16346;SDS011;8283;48.504;13.734;2022-12-10T11:11:42;12.20;;;8.13;;
16346;SDS011;8283;48.504;13.734;2022-12-10T11:14:40;9.70;;;6.88;;
16346;SDS011;8283;48.504;13.734;2022-12-10T11:17:29;10.35;;;7.07;;
16346;SDS011;8283;48.504;13.734;2022-12-10T11:20:21;10.23;;;7.45;;
16346;SDS011;8283;48.504;13.734;2022-12-10T11:23:12;8.50;;;6.90;;
16346;SDS011;8283;48.504;13.734;2022-12-10T11:29:08;11.30;;;8.45;;
16346;SDS011;8283;48.504;13.734;2022-12-10T11:32:36;9.45;;;7.50;;
16346;SDS011;8283;48.504;13.734;2022-12-10T11:39:02;10.75;;;8.10;;
16346;SDS011;8283;48.504;13.734;2022-12-10T11:57:49;13.80;;;9.18;;
16346;SDS011;8283;48.504;13.734;2022-12-10T12:00:59;13.88;;;9.60;;
16346;SDS011;8283;48.504;13.734;2022-12-10T12:10:17;13.73;;;9.55;;
16346;SDS011;8283;48.504;13.734;2022-12-10T12:19:17;13.05;;;7.70;;
16346;SDS011;8283;48.504;13.734;2022-12-10T12:22:11;12.13;;;7.68;;
16346;SDS011;8283;48.504;13.734;2022-12-10T12:25:08;16.70;;;10.20;;
16346;SDS011;8283;48.504;13.734;2022-12-10T12:28:14;11.80;;;9.10;;
16346;SDS011;8283;48.504;13.734;2022-12-10T12:31:13;13.38;;;9.43;;
16346;SDS011;8283;48.504;13.734;2022-12-10T12:34:10;13.05;;;9.73;;
16346;SDS011;8283;48.504;13.734;2022-12-10T12:37:01;10.80;;;8.13;;
16346;SDS011;8283;48.504;13.734;2022-12-10T12:39:51;12.20;;;9.20;;
16346;SDS011;8283;48.504;13.734;2022-12-10T12:45:45;13.20;;;9.75;;
16346;SDS011;8283;48.504;13.734;2022-12-10T12:51:26;12.00;;;8.80;;
16346;SDS011;8283;48.504;13.734;2022-12-10T12:54:20;12.35;;;9.00;;
16346;SDS011;8283;48.504;13.734;2022-12-10T12:57:16;14.20;;;9.65;;
16346;SDS011;8283;48.504;13.734;2022-12-10T13:00:14;14.65;;;9.43;;
16346;SDS011;8283;48.504;13.734;2022-12-10T13:03:17;12.70;;;8.90;;
16346;SDS011;8283;48.504;13.734;2022-12-10T13:14:54;13.57;;;9.82;;
16346;SDS011;8283;48.504;13.734;2022-12-10T13:18:03;13.57;;;9.05;;
16346;SDS011;8283;48.504;13.734;2022-12-10T13:24:07;12.00;;;9.32;;
16346;SDS011;8283;48.504;13.734;2022-12-10T13:30:32;13.95;;;8.45;;
16346;SDS011;8283;48.504;13.734;2022-12-10T13:33:20;11.48;;;8.27;;
16346;SDS011;8283;48.504;13.734;2022-12-10T13:36:04;12.45;;;8.88;;
16346;SDS011;8283;48.504;13.734;2022-12-10T13:51:23;11.85;;;8.90;;
16346;SDS011;8283;48.504;13.734;2022-12-10T13:57:20;14.63;;;9.55;;
16346;SDS011;8283;48.504;13.734;2022-12-10T14:00:32;13.10;;;10.05;;
16346;SDS011;8283;48.504;13.734;2022-12-10T14:06:33;12.45;;;8.43;;
16346;SDS011;8283;48.504;13.734;2022-12-10T14:09:21;12.07;;;8.45;;
16346;SDS011;8283;48.504;13.734;2022-12-10T14:12:14;13.73;;;9.25;;
16346;SDS011;8283;48.504;13.734;2022-12-10T14:15:06;12.30;;;8.50;;
16346;SDS011;8283;48.504;13.734;2022-12-10T14:18:03;12.25;;;9.02;;
16346;SDS011;8283;48.504;13.734;2022-12-10T14:20:55;14.68;;;9.98;;
16346;SDS011;8283;48.504;13.734;2022-12-10T14:23:45;11.50;;;8.43;;
16346;SDS011;8283;48.504;13.734;2022-12-10T14:26:32;12.27;;;9.13;;
16346;SDS011;8283;48.504;13.734;2022-12-10T14:29:19;15.80;;;10.30;;
16346;SDS011;8283;48.504;13.734;2022-12-10T14:32:04;12.63;;;8.30;;
16346;SDS011;8283;48.504;13.734;2022-12-10T14:34:50;10.23;;;8.15;;
16346;SDS011;8283;48.504;13.734;2022-12-10T14:37:41;13.35;;;8.80;;
16346;SDS011;8283;48.504;13.734;2022-12-10T14:40:32;12.38;;;8.38;;
16346;SDS011;8283;48.504;13.734;2022-12-10T14:43:23;13.15;;;7.82;;
16346;SDS011;8283;48.504;13.734;2022-12-10T14:46:20;11.70;;;8.63;;
16346;SDS011;8283;48.504;13.734;2022-12-10T14:49:13;13.10;;;8.75;;
16346;SDS011;8283;48.504;13.734;2022-12-10T14:52:00;13.02;;;9.18;;
16346;SDS011;8283;48.504;13.734;2022-12-10T14:54:45;13.13;;;8.57;;
16346;SDS011;8283;48.504;13.734;2022-12-10T14:57:34;11.05;;;7.65;;
16346;SDS011;8283;48.504;13.734;2022-12-10T15:00:25;12.55;;;8.15;;
16346;SDS011;8283;48.504;13.734;2022-12-10T15:03:10;14.35;;;8.82;;
16346;SDS011;8283;48.504;13.734;2022-12-10T15:06:02;11.60;;;7.93;;
16346;SDS011;8283;48.504;13.734;2022-12-10T15:08:53;10.82;;;7.75;;
16346;SDS011;8283;48.504;13.734;2022-12-10T15:11:40;12.90;;;8.93;;
16346;SDS011;8283;48.504;13.734;2022-12-10T15:14:25;13.48;;;9.70;;
16346;SDS011;8283;48.504;13.734;2022-12-10T15:20:20;14.88;;;8.77;;
16346;SDS011;8283;48.504;13.734;2022-12-10T15:23:07;14.10;;;9.07;;
16346;SDS011;8283;48.504;13.734;2022-12-10T15:28:49;11.02;;;8.00;;
16346;SDS011;8283;48.504;13.734;2022-12-10T15:31:35;13.07;;;9.07;;
16346;SDS011;8283;48.504;13.734;2022-12-10T15:34:20;13.88;;;9.18;;
16346;SDS011;8283;48.504;13.734;2022-12-10T15:37:04;17.50;;;11.90;;
16346;SDS011;8283;48.504;13.734;2022-12-10T15:39:58;15.50;;;10.50;;
16346;SDS011;8283;48.504;13.734;2022-12-10T15:42:44;14.43;;;8.50;;
16346;SDS011;8283;48.504;13.734;2022-12-10T15:45:38;12.95;;;8.68;;
16346;SDS011;8283;48.504;13.734;2022-12-10T15:48:26;14.05;;;9.43;;
16346;SDS011;8283;48.504;13.734;2022-12-10T15:51:13;14.23;;;9.77;;
16346;SDS011;8283;48.504;13.734;2022-12-10T15:53:58;14.93;;;9.65;;
16346;SDS011;8283;48.504;13.734;2022-12-10T15:56:43;16.23;;;9.95;;
16346;SDS011;8283;48.504;13.734;2022-12-10T15:59:27;11.68;;;8.25;;
16346;SDS011;8283;48.504;13.734;2022-12-10T16:08:22;11.32;;;7.95;;
16346;SDS011;8283;48.504;13.734;2022-12-10T16:11:17;11.90;;;8.88;;
16346;SDS011;8283;48.504;13.734;2022-12-10T16:14:03;14.63;;;10.07;;
16346;SDS011;8283;48.504;13.734;2022-12-10T16:16:50;13.15;;;9.30;;
16346;SDS011;8283;48.504;13.734;2022-12-10T16:19:34;12.70;;;8.95;;
16346;SDS011;8283;48.504;13.734;2022-12-10T16:22:20;13.52;;;8.98;;
16346;SDS011;8283;48.504;13.734;2022-12-10T16:25:05;12.20;;;8.90;;
16346;SDS011;8283;48.504;13.734;2022-12-10T16:27:50;13.18;;;9.85;;
16346;SDS011;8283;48.504;13.734;2022-12-10T16:30:35;12.38;;;8.52;;
16346;SDS011;8283;48.504;13.734;2022-12-10T16:33:22;13.40;;;9.00;;
16346;SDS011;8283;48.504;13.734;2022-12-10T16:36:09;13.32;;;8.88;;
16346;SDS011;8283;48.504;13.734;2022-12-10T16:38:55;11.57;;;7.95;;
16346;SDS011;8283;48.504;13.734;2022-12-10T16:41:39;9.38;;;6.45;;
16346;SDS011;8283;48.504;13.734;2022-12-10T16:44:25;10.40;;;7.00;;
16346;SDS011;8283;48.504;13.734;2022-12-10T16:47:10;9.68;;;7.10;;
16346;SDS011;8283;48.504;13.734;2022-12-10T16:49:55;10.57;;;7.63;;
16346;SDS011;8283;48.504;13.734;2022-12-10T16:52:40;8.65;;;6.55;;
16346;SDS011;8283;48.504;13.734;2022-12-10T16:55:25;8.15;;;5.97;;
16346;SDS011;8283;48.504;13.734;2022-12-10T16:58:10;8.73;;;6.82;;
16346;SDS011;8283;48.504;13.734;2022-12-10T17:00:58;9.93;;;7.15;;
16346;SDS011;8283;48.504;13.734;2022-12-10T17:03:43;10.88;;;7.22;;
16346;SDS011;8283;48.504;13.734;2022-12-10T17:06:27;13.13;;;7.97;;
16346;SDS011;8283;48.504;13.734;2022-12-10T17:09:12;14.40;;;8.98;;
16346;SDS011;8283;48.504;13.734;2022-12-10T17:11:56;11.65;;;7.72;;
16346;SDS011;8283;48.504;13.734;2022-12-10T17:14:42;14.60;;;9.70;;
16346;SDS011;8283;48.504;13.734;2022-12-10T17:17:30;12.73;;;8.40;;
16346;SDS011;8283;48.504;13.734;2022-12-10T17:20:16;12.15;;;8.07;;
16346;SDS011;8283;48.504;13.734;2022-12-10T17:23:02;11.25;;;8.38;;
16346;SDS011;8283;48.504;13.734;2022-12-10T17:25:46;12.48;;;8.23;;
16346;SDS011;8283;48.504;13.734;2022-12-10T17:28:31;10.88;;;7.63;;
16346;SDS011;8283;48.504;13.734;2022-12-10T17:31:15;13.73;;;8.50;;
16346;SDS011;8283;48.504;13.734;2022-12-10T17:33:59;10.73;;;7.60;;
16346;SDS011;8283;48.504;13.734;2022-12-10T17:36:44;10.20;;;7.90;;
16346;SDS011;8283;48.504;13.734;2022-12-10T17:39:29;15.30;;;9.88;;
16346;SDS011;8283;48.504;13.734;2022-12-10T17:42:13;15.45;;;9.45;;
16346;SDS011;8283;48.504;13.734;2022-12-10T17:44:58;11.15;;;8.00;;
16346;SDS011;8283;48.504;13.734;2022-12-10T17:47:42;11.32;;;8.13;;
16346;SDS011;8283;48.504;13.734;2022-12-10T17:50:28;11.15;;;7.93;;
16346;SDS011;8283;48.504;13.734;2022-12-10T17:53:16;13.63;;;9.35;;
16346;SDS011;8283;48.504;13.734;2022-12-10T17:56:01;11.90;;;8.45;;
16346;SDS011;8283;48.504;13.734;2022-12-10T17:58:47;10.80;;;7.63;;
16346;SDS011;8283;48.504;13.734;2022-12-10T18:01:32;12.70;;;9.43;;
16346;SDS011;8283;48.504;13.734;2022-12-10T18:04:17;13.43;;;9.07;;
16346;SDS011;8283;48.504;13.734;2022-12-10T18:07:02;12.63;;;8.40;;
16346;SDS011;8283;48.504;13.734;2022-12-10T18:09:52;11.88;;;7.85;;
16346;SDS011;8283;48.504;13.734;2022-12-10T18:12:36;12.52;;;8.30;;
16346;SDS011;8283;48.504;13.734;2022-12-10T18:15:20;13.70;;;9.27;;
16346;SDS011;8283;48.504;13.734;2022-12-10T18:18:08;12.38;;;8.32;;
16346;SDS011;8283;48.504;13.734;2022-12-10T18:20:53;15.88;;;10.10;;
16346;SDS011;8283;48.504;13.734;2022-12-10T18:23:38;12.20;;;8.68;;